createdAt,value
2022-10-30T14:40:43.709Z,81.95
2022-10-30T14:43:20.248Z,83.05
2022-10-30T14:45:56.133Z,83.88
2022-10-30T14:48:28.610Z,84.45
2022-10-30T14:51:10.960Z,85.14
2022-10-30T14:53:54.682Z,85.06
2022-10-30T14:56:36.919Z,85.74
2022-10-30T14:59:23.562Z,86.02
2022-10-30T15:02:17.898Z,86.08
2022-10-30T15:05:09.762Z,85.98
2022-10-30T15:07:45.889Z,86.00
2022-10-30T15:10:19.756Z,86.53
2022-10-30T15:13:07.804Z,86.02
2022-10-30T15:15:37.399Z,86.40
2022-10-30T15:18:11.969Z,86.56
2022-10-30T15:20:41.949Z,86.49
2022-10-30T15:23:20.688Z,86.57
2022-10-30T15:25:52.388Z,86.37
2022-10-30T15:28:27.124Z,86.63
2022-10-30T15:31:04.812Z,86.29
2022-10-30T15:33:35.910Z,86.26
2022-10-30T15:36:05.341Z,86.45
2022-10-30T15:38:34.752Z,86.41
2022-10-30T15:41:22.685Z,86.45
2022-10-30T15:43:55.367Z,86.44
2022-10-30T15:46:24.905Z,86.49
2022-10-30T15:48:54.258Z,86.41
2022-10-30T15:51:26.073Z,86.20
2022-10-30T15:54:00.370Z,86.41
2022-10-30T15:56:33.391Z,86.51
2022-10-30T15:59:06.845Z,86.64
2022-10-30T16:01:42.367Z,86.56
2022-10-30T16:04:29.642Z,86.43
2022-10-30T16:07:01.304Z,86.35
2022-10-30T16:09:30.963Z,86.37
2022-10-30T16:12:02.355Z,86.27
2022-10-30T16:14:38.685Z,86.52
2022-10-30T16:17:08.409Z,86.48
2022-10-30T16:19:44.771Z,86.42
2022-10-30T16:22:18.255Z,86.46
2022-10-30T16:24:48.157Z,86.25
2022-10-30T16:27:19.507Z,86.47
2022-10-30T16:29:52.893Z,86.33
2022-10-30T16:32:26.675Z,86.25
2022-10-30T16:34:59.670Z,86.18
2022-10-30T16:37:35.303Z,86.13
2022-10-30T16:40:08.669Z,86.24
2022-10-30T16:42:37.893Z,86.17
2022-10-30T16:45:48.741Z,85.84
2022-10-30T16:48:28.186Z,85.93
2022-10-30T16:51:05.763Z,85.70
2022-10-30T16:53:35.437Z,85.96
2022-10-30T16:56:05.339Z,86.14
2022-10-30T16:58:34.638Z,85.95
2022-10-30T17:01:08.476Z,86.07
2022-10-30T17:03:45.438Z,86.17
2022-10-30T17:06:29.793Z,85.95
2022-10-30T17:09:01.309Z,85.72
2022-10-30T17:11:37.645Z,86.05
2022-10-30T17:14:17.962Z,85.88
2022-10-30T17:16:56.046Z,86.04
2022-10-30T17:19:48.014Z,85.95
2022-10-30T17:22:21.954Z,86.01
2022-10-30T17:24:51.218Z,86.12
2022-10-30T17:27:47.435Z,86.10
2022-10-30T17:30:41.385Z,86.20
2022-10-30T17:33:36.869Z,86.16
2022-10-30T17:36:07.151Z,85.89
2022-10-30T17:38:36.380Z,86.09
2022-10-30T17:41:05.877Z,86.20
2022-10-30T17:43:48.586Z,86.11
2022-10-30T17:46:20.050Z,86.14
2022-10-30T17:48:54.575Z,86.05
2022-10-30T17:51:23.675Z,85.87
2022-10-30T17:53:52.759Z,85.89
2022-10-30T17:56:25.443Z,85.92
2022-10-30T17:58:54.857Z,85.83
2022-10-30T18:01:25.417Z,85.67
2022-10-30T18:03:57.554Z,85.43
2022-10-30T18:06:29.569Z,85.49
2022-10-30T18:08:58.973Z,85.89
2022-10-30T18:11:29.266Z,85.36
2022-10-30T18:14:01.597Z,85.75
2022-10-30T18:16:31.792Z,85.63
2022-10-30T18:19:02.980Z,85.95
2022-10-30T18:21:32.126Z,85.47
2022-10-30T18:24:01.662Z,85.88
2022-10-30T18:26:34.120Z,86.03
2022-10-30T18:29:11.551Z,85.89
2022-10-30T18:32:09.617Z,85.65
2022-10-30T18:35:06.710Z,85.79
2022-10-30T18:37:36.549Z,85.40
2022-10-30T18:40:06.324Z,85.39
2022-10-30T18:42:35.912Z,85.76
2022-10-30T18:45:12.046Z,85.24
2022-10-30T18:47:41.184Z,85.53
2022-10-30T18:50:12.634Z,85.67
2022-10-30T18:53:39.140Z,85.41
2022-10-30T18:56:11.627Z,85.44
2022-10-30T18:58:41.148Z,85.70
2022-10-30T19:01:27.600Z,85.50
2022-10-30T19:03:56.921Z,85.54
2022-10-30T19:06:58.174Z,85.40
2022-10-30T19:09:29.518Z,85.30
2022-10-30T19:11:59.171Z,85.32
2022-10-30T19:14:28.633Z,85.02
2022-10-30T19:16:58.122Z,85.50
2022-10-30T19:19:27.685Z,85.02
2022-10-30T19:21:58.767Z,85.28
2022-10-30T19:24:29.764Z,85.20
2022-10-30T19:26:59.333Z,85.14
2022-10-30T19:29:28.930Z,85.68
2022-10-30T19:31:58.538Z,85.34
2022-10-30T19:34:28.165Z,85.42
2022-10-30T19:36:59.304Z,85.39
2022-10-30T19:39:28.808Z,85.16
2022-10-30T19:41:57.976Z,85.17
2022-10-30T19:44:27.197Z,85.46
2022-10-30T19:46:56.325Z,85.25
2022-10-30T19:49:25.725Z,85.16
2022-10-30T19:51:54.911Z,85.56
2022-10-30T19:54:25.560Z,85.19
2022-10-30T19:56:54.742Z,85.40
2022-10-30T19:59:23.886Z,85.48
2022-10-30T20:01:53.332Z,85.38
2022-10-30T20:04:22.781Z,85.51
2022-10-30T20:06:52.008Z,85.61
2022-10-30T20:09:21.251Z,85.83
2022-10-30T20:11:51.892Z,85.61
2022-10-30T20:14:21.230Z,85.60
2022-10-30T20:16:50.422Z,85.36
2022-10-30T20:19:29.440Z,85.10
2022-10-30T20:21:58.825Z,85.44
2022-10-30T20:24:27.999Z,85.62
2022-10-30T20:26:59.488Z,85.48
2022-10-30T20:29:29.120Z,85.56
2022-10-30T20:31:58.343Z,85.36
2022-10-30T20:34:27.505Z,85.65
2022-10-30T20:36:56.752Z,85.18
2022-10-30T20:39:25.893Z,85.63
2022-10-30T20:41:55.186Z,85.05
2022-10-30T20:44:25.942Z,85.46
2022-10-30T20:46:55.170Z,85.53
2022-10-30T20:49:24.355Z,85.78
2022-10-30T20:51:53.569Z,85.25
2022-10-30T20:54:22.900Z,85.16
2022-10-30T20:56:52.013Z,85.05
2022-10-30T20:59:21.291Z,85.57
2022-10-30T21:01:52.198Z,85.35
2022-10-30T21:04:21.705Z,84.92
2022-10-30T21:06:51.216Z,84.94
2022-10-30T21:09:20.363Z,85.67
2022-10-30T21:11:49.690Z,85.38
2022-10-30T21:14:19.037Z,85.56
2022-10-30T21:16:48.188Z,85.23
2022-10-30T21:19:18.921Z,85.04
2022-10-30T21:21:48.160Z,85.40
2022-10-30T21:24:17.323Z,85.66
2022-10-30T21:26:46.530Z,85.67
2022-10-30T21:29:15.742Z,84.95
2022-10-30T21:31:44.909Z,85.19
2022-10-30T21:34:14.775Z,85.30
2022-10-30T21:36:45.557Z,85.48
2022-10-30T21:39:14.721Z,85.49
2022-10-30T21:41:43.872Z,84.99
2022-10-30T21:44:13.284Z,84.95
2022-10-30T21:46:42.543Z,85.52
2022-10-30T21:49:14.140Z,85.14
2022-10-30T21:51:43.359Z,85.05
2022-10-30T21:54:14.349Z,85.00
2022-10-30T21:56:43.569Z,85.63
2022-10-30T21:59:13.917Z,84.87
2022-10-30T22:01:43.574Z,85.16
2022-10-30T22:04:13.825Z,85.50
2022-10-30T22:06:45.787Z,85.25
2022-10-30T22:09:19.693Z,84.94
2022-10-30T22:11:48.989Z,85.26
2022-10-30T22:14:18.230Z,85.10
2022-10-30T22:16:47.363Z,84.95
2022-10-30T22:19:17.682Z,85.68
2022-10-30T22:21:46.934Z,84.83
2022-10-30T22:24:17.733Z,84.87
2022-10-30T22:26:47.752Z,85.42
2022-10-30T22:29:17.085Z,85.44
2022-10-30T22:31:46.261Z,84.79
2022-10-30T22:34:15.428Z,85.12
2022-10-30T22:36:44.569Z,84.62
2022-10-30T22:39:15.093Z,85.33
2022-10-30T22:41:45.917Z,85.18
2022-10-30T22:44:19.799Z,85.25
2022-10-30T22:47:12.909Z,85.06
2022-10-30T22:49:43.070Z,84.99
2022-10-30T22:52:17.653Z,85.18
2022-10-30T22:54:52.901Z,84.91
2022-10-30T22:57:27.167Z,85.04
2022-10-30T22:59:56.413Z,85.30
2022-10-30T23:02:25.586Z,85.03
2022-10-30T23:04:54.842Z,85.16
2022-10-30T23:07:23.999Z,84.84
2022-10-30T23:09:53.142Z,84.38
2022-10-30T23:12:22.257Z,85.16
2022-10-30T23:14:53.062Z,84.57
2022-10-30T23:17:22.216Z,84.75
2022-10-30T23:19:51.425Z,84.85
2022-10-30T23:22:20.540Z,84.55
2022-10-30T23:24:50.327Z,84.81
2022-10-30T23:27:19.445Z,84.50
2022-10-30T23:29:49.872Z,84.92
2022-10-30T23:32:20.560Z,84.62
2022-10-30T23:34:49.801Z,85.27
2022-10-30T23:37:18.929Z,85.29
2022-10-30T23:39:48.034Z,85.19
2022-10-30T23:42:17.694Z,84.48
2022-10-30T23:44:46.785Z,84.92
2022-10-30T23:47:15.900Z,84.95
2022-10-30T23:49:46.491Z,84.71
2022-10-30T23:52:15.634Z,84.87
2022-10-30T23:54:44.746Z,84.44
2022-10-30T23:57:13.862Z,84.58
2022-10-30T23:59:43.035Z,84.54
